sensor_id;sensor_type;location;lat;lon;timestamp;pressure;altitude;pressure_sealevel;temperature
76901;BMP280;65859;43.020;25.096;2023-03-01T14:38:35;99855.50;;;7.69
76901;BMP280;65859;43.020;25.096;2023-03-01T14:41:29;99855.44;;;7.50
76901;BMP280;65859;43.020;25.096;2023-03-01T14:44:03;99855.41;;;7.31
76901;BMP280;65859;43.020;25.096;2023-03-01T14:46:39;99851.97;;;7.31
76901;BMP280;65859;43.020;25.096;2023-03-01T14:49:16;99868.84;;;7.35
76901;BMP280;65859;43.020;25.096;2023-03-01T14:52:02;99860.69;;;7.31
76901;BMP280;65859;43.020;25.096;2023-03-01T14:54:43;99870.09;;;7.62
76901;BMP280;65859;43.020;25.096;2023-03-01T14:57:19;99869.78;;;7.44
76901;BMP280;65859;43.020;25.096;2023-03-01T14:59:49;99866.63;;;7.42
76901;BMP280;65859;43.020;25.096;2023-03-01T15:02:19;99862.19;;;7.38
76901;BMP280;65859;43.020;25.096;2023-03-01T15:04:54;99867.88;;;7.26
76901;BMP280;65859;43.020;25.096;2023-03-01T15:07:28;99866.53;;;7.28
76901;BMP280;65859;43.020;25.096;2023-03-01T15:09:56;99854.19;;;7.48
76901;BMP280;65859;43.020;25.096;2023-03-01T15:14:56;99855.72;;;7.49
76901;BMP280;65859;43.020;25.096;2023-03-01T15:17:36;99848.78;;;7.34
76901;BMP280;65859;43.020;25.096;2023-03-01T15:20:06;99851.25;;;7.25
76901;BMP280;65859;43.020;25.096;2023-03-01T15:26:04;99848.44;;;7.41
76901;BMP280;65859;43.020;25.096;2023-03-01T15:28:33;99852.28;;;7.29
76901;BMP280;65859;43.020;25.096;2023-03-01T15:31:22;99849.28;;;7.36
76901;BMP280;65859;43.020;25.096;2023-03-01T15:33:49;99845.78;;;7.22
76901;BMP280;65859;43.020;25.096;2023-03-01T15:38:59;99847.44;;;7.37
76901;BMP280;65859;43.020;25.096;2023-03-01T15:41:29;99850.34;;;7.35
76901;BMP280;65859;43.020;25.096;2023-03-01T15:44:14;99848.50;;;7.36
76901;BMP280;65859;43.020;25.096;2023-03-01T15:46:44;99844.53;;;7.14
76901;BMP280;65859;43.020;25.096;2023-03-01T15:49:40;99854.38;;;7.27
76901;BMP280;65859;43.020;25.096;2023-03-01T15:52:26;99851.91;;;6.88
76901;BMP280;65859;43.020;25.096;2023-03-01T15:55:17;99853.16;;;6.96
76901;BMP280;65859;43.020;25.096;2023-03-01T15:57:45;99847.22;;;7.09
76901;BMP280;65859;43.020;25.096;2023-03-01T16:00:12;99852.16;;;7.16
76901;BMP280;65859;43.020;25.096;2023-03-01T16:02:40;99858.94;;;6.98
76901;BMP280;65859;43.020;25.096;2023-03-01T16:05:20;99854.28;;;7.38
76901;BMP280;65859;43.020;25.096;2023-03-01T16:07:47;99859.22;;;7.20
76901;BMP280;65859;43.020;25.096;2023-03-01T16:10:13;99865.34;;;7.16
76901;BMP280;65859;43.020;25.096;2023-03-01T16:12:40;99870.13;;;7.14
76901;BMP280;65859;43.020;25.096;2023-03-01T16:15:26;99865.97;;;7.08
76901;BMP280;65859;43.020;25.096;2023-03-01T16:17:53;99872.75;;;7.14
76901;BMP280;65859;43.020;25.096;2023-03-01T16:20:20;99876.63;;;6.97
76901;BMP280;65859;43.020;25.096;2023-03-01T16:22:47;99868.13;;;7.00
76901;BMP280;65859;43.020;25.096;2023-03-01T16:25:18;99877.41;;;6.98
76901;BMP280;65859;43.020;25.096;2023-03-01T16:27:50;99874.81;;;6.93
76901;BMP280;65859;43.020;25.096;2023-03-01T16:30:19;99882.25;;;7.15
76901;BMP280;65859;43.020;25.096;2023-03-01T16:32:47;99887.06;;;7.08
76901;BMP280;65859;43.020;25.096;2023-03-01T16:35:16;99885.50;;;7.07
76901;BMP280;65859;43.020;25.096;2023-03-01T16:37:43;99878.81;;;7.14
76901;BMP280;65859;43.020;25.096;2023-03-01T16:40:22;99881.03;;;7.31
76901;BMP280;65859;43.020;25.096;2023-03-01T16:42:49;99871.16;;;7.18
76901;BMP280;65859;43.020;25.096;2023-03-01T16:45:18;99858.56;;;7.34
76901;BMP280;65859;43.020;25.096;2023-03-01T16:47:44;99869.91;;;7.10
76901;BMP280;65859;43.020;25.096;2023-03-01T16:50:11;99871.50;;;7.06
76901;BMP280;65859;43.020;25.096;2023-03-01T16:52:37;99871.16;;;7.13
76901;BMP280;65859;43.020;25.096;2023-03-01T16:55:05;99871.06;;;6.99
76901;BMP280;65859;43.020;25.096;2023-03-01T16:57:34;99868.41;;;6.99
76901;BMP280;65859;43.020;25.096;2023-03-01T17:00:00;99868.75;;;7.21
76901;BMP280;65859;43.020;25.096;2023-03-01T17:02:35;99867.66;;;7.22
76901;BMP280;65859;43.020;25.096;2023-03-01T17:05:02;99868.75;;;7.16
76901;BMP280;65859;43.020;25.096;2023-03-01T17:07:30;99857.69;;;7.38
76901;BMP280;65859;43.020;25.096;2023-03-01T17:10:00;99858.38;;;7.49
76901;BMP280;65859;43.020;25.096;2023-03-01T17:12:27;99854.91;;;7.29
76901;BMP280;65859;43.020;25.096;2023-03-01T17:14:54;99854.19;;;7.24
76901;BMP280;65859;43.020;25.096;2023-03-01T17:17:21;99856.88;;;7.19
76901;BMP280;65859;43.020;25.096;2023-03-01T17:19:48;99837.50;;;7.04
76901;BMP280;65859;43.020;25.096;2023-03-01T17:22:14;99842.38;;;7.16
76901;BMP280;65859;43.020;25.096;2023-03-01T17:24:41;99842.25;;;7.02
76901;BMP280;65859;43.020;25.096;2023-03-01T17:27:08;99839.91;;;7.01
76901;BMP280;65859;43.020;25.096;2023-03-01T17:29:35;99846.72;;;7.07
76901;BMP280;65859;43.020;25.096;2023-03-01T17:32:02;99845.75;;;6.98
76901;BMP280;65859;43.020;25.096;2023-03-01T17:34:31;99848.88;;;7.00
76901;BMP280;65859;43.020;25.096;2023-03-01T17:36:58;99847.53;;;7.02
76901;BMP280;65859;43.020;25.096;2023-03-01T17:39:24;99845.00;;;6.92
76901;BMP280;65859;43.020;25.096;2023-03-01T17:41:53;99836.31;;;6.92
76901;BMP280;65859;43.020;25.096;2023-03-01T17:44:20;99830.34;;;6.81
76901;BMP280;65859;43.020;25.096;2023-03-01T17:46:46;99832.28;;;6.99
76901;BMP280;65859;43.020;25.096;2023-03-01T17:49:14;99835.38;;;7.07
76901;BMP280;65859;43.020;25.096;2023-03-01T17:51:42;99837.44;;;7.10
76901;BMP280;65859;43.020;25.096;2023-03-01T17:54:09;99835.66;;;7.29
76901;BMP280;65859;43.020;25.096;2023-03-01T17:56:36;99825.47;;;7.17
76901;BMP280;65859;43.020;25.096;2023-03-01T17:59:04;99829.25;;;7.11
76901;BMP280;65859;43.020;25.096;2023-03-01T18:01:32;99828.66;;;6.90
76901;BMP280;65859;43.020;25.096;2023-03-01T18:04:00;99826.09;;;7.09
76901;BMP280;65859;43.020;25.096;2023-03-01T18:06:28;99827.69;;;7.10
76901;BMP280;65859;43.020;25.096;2023-03-01T18:08:54;99827.97;;;7.09
76901;BMP280;65859;43.020;25.096;2023-03-01T18:11:23;99835.69;;;7.00
76901;BMP280;65859;43.020;25.096;2023-03-01T18:13:50;99836.38;;;6.87
76901;BMP280;65859;43.020;25.096;2023-03-01T18:16:18;99835.78;;;6.90
76901;BMP280;65859;43.020;25.096;2023-03-01T18:18:45;99836.88;;;6.89
76901;BMP280;65859;43.020;25.096;2023-03-01T18:21:14;99833.16;;;6.90
76901;BMP280;65859;43.020;25.096;2023-03-01T18:23:41;99840.66;;;6.77
76901;BMP280;65859;43.020;25.096;2023-03-01T18:26:10;99835.44;;;6.72
76901;BMP280;65859;43.020;25.096;2023-03-01T18:28:37;99833.00;;;6.81
76901;BMP280;65859;43.020;25.096;2023-03-01T18:31:09;99829.34;;;6.77
76901;BMP280;65859;43.020;25.096;2023-03-01T18:33:39;99829.81;;;7.08
76901;BMP280;65859;43.020;25.096;2023-03-01T18:36:12;99821.13;;;7.08
76901;BMP280;65859;43.020;25.096;2023-03-01T18:38:41;99827.56;;;6.96
76901;BMP280;65859;43.020;25.096;2023-03-01T18:41:07;99818.25;;;6.75
76901;BMP280;65859;43.020;25.096;2023-03-01T18:43:33;99818.78;;;6.77
76901;BMP280;65859;43.020;25.096;2023-03-01T18:46:00;99829.94;;;6.69
76901;BMP280;65859;43.020;25.096;2023-03-01T18:48:30;99828.88;;;6.70
76901;BMP280;65859;43.020;25.096;2023-03-01T18:50:57;99829.38;;;6.72
76901;BMP280;65859;43.020;25.096;2023-03-01T18:53:24;99828.81;;;6.75
76901;BMP280;65859;43.020;25.096;2023-03-01T18:55:51;99830.72;;;6.69
76901;BMP280;65859;43.020;25.096;2023-03-01T18:58:17;99819.78;;;6.52
76901;BMP280;65859;43.020;25.096;2023-03-01T19:00:43;99822.31;;;6.62
76901;BMP280;65859;43.020;25.096;2023-03-01T19:03:10;99818.72;;;6.53
76901;BMP280;65859;43.020;25.096;2023-03-01T19:05:40;99816.38;;;6.51
76901;BMP280;65859;43.020;25.096;2023-03-01T19:08:06;99810.19;;;6.66
76901;BMP280;65859;43.020;25.096;2023-03-01T19:10:33;99822.00;;;6.69
76901;BMP280;65859;43.020;25.096;2023-03-01T19:13:00;99817.13;;;6.57
76901;BMP280;65859;43.020;25.096;2023-03-01T19:15:26;99823.00;;;6.78
76901;BMP280;65859;43.020;25.096;2023-03-01T19:17:52;99823.47;;;6.80
76901;BMP280;65859;43.020;25.096;2023-03-01T19:20:19;99820.72;;;6.66
76901;BMP280;65859;43.020;25.096;2023-03-01T19:22:45;99827.19;;;6.79
76901;BMP280;65859;43.020;25.096;2023-03-01T19:25:15;99827.53;;;6.72
76901;BMP280;65859;43.020;25.096;2023-03-01T19:27:41;99820.41;;;6.73
76901;BMP280;65859;43.020;25.096;2023-03-01T19:30:09;99821.31;;;6.87
76901;BMP280;65859;43.020;25.096;2023-03-01T19:32:35;99820.16;;;6.69
76901;BMP280;65859;43.020;25.096;2023-03-01T19:35:01;99821.88;;;6.84
76901;BMP280;65859;43.020;25.096;2023-03-01T19:37:28;99823.84;;;6.73
76901;BMP280;65859;43.020;25.096;2023-03-01T19:39:54;99825.34;;;6.79
76901;BMP280;65859;43.020;25.096;2023-03-01T19:42:21;99829.06;;;7.02
76901;BMP280;65859;43.020;25.096;2023-03-01T19:44:51;99828.75;;;6.80
76901;BMP280;65859;43.020;25.096;2023-03-01T19:47:18;99832.47;;;6.79
76901;BMP280;65859;43.020;25.096;2023-03-01T19:49:44;99825.25;;;6.90
76901;BMP280;65859;43.020;25.096;2023-03-01T19:52:12;99830.66;;;6.74
76901;BMP280;65859;43.020;25.096;2023-03-01T19:54:39;99828.81;;;6.75
76901;BMP280;65859;43.020;25.096;2023-03-01T19:57:06;99830.00;;;6.88
76901;BMP280;65859;43.020;25.096;2023-03-01T19:59:33;99834.41;;;6.97
76901;BMP280;65859;43.020;25.096;2023-03-01T20:02:01;99833.84;;;7.00
76901;BMP280;65859;43.020;25.096;2023-03-01T20:04:28;99832.94;;;6.86
76901;BMP280;65859;43.020;25.096;2023-03-01T20:06:55;99831.28;;;6.95
76901;BMP280;65859;43.020;25.096;2023-03-01T20:09:21;99827.72;;;6.81
76901;BMP280;65859;43.020;25.096;2023-03-01T20:11:48;99835.59;;;6.86
76901;BMP280;65859;43.020;25.096;2023-03-01T20:14:15;99834.72;;;6.91
76901;BMP280;65859;43.020;25.096;2023-03-01T20:16:41;99836.91;;;6.84
76901;BMP280;65859;43.020;25.096;2023-03-01T20:19:08;99840.53;;;6.93
76901;BMP280;65859;43.020;25.096;2023-03-01T20:21:34;99845.38;;;6.80
76901;BMP280;65859;43.020;25.096;2023-03-01T20:24:01;99845.06;;;6.87
76901;BMP280;65859;43.020;25.096;2023-03-01T20:26:27;99841.63;;;6.87
76901;BMP280;65859;43.020;25.096;2023-03-01T20:28:56;99832.47;;;6.79
76901;BMP280;65859;43.020;25.096;2023-03-01T20:31:23;99836.56;;;6.95
76901;BMP280;65859;43.020;25.096;2023-03-01T20:33:56;99838.28;;;7.05
76901;BMP280;65859;43.020;25.096;2023-03-01T20:36:22;99834.16;;;7.42
76901;BMP280;65859;43.020;25.096;2023-03-01T20:38:50;99836.41;;;7.05
76901;BMP280;65859;43.020;25.096;2023-03-01T20:41:16;99839.78;;;6.87
76901;BMP280;65859;43.020;25.096;2023-03-01T20:43:43;99846.03;;;6.96
76901;BMP280;65859;43.020;25.096;2023-03-01T20:46:11;99838.66;;;6.93
76901;BMP280;65859;43.020;25.096;2023-03-01T20:48:40;99842.63;;;6.96
76901;BMP280;65859;43.020;25.096;2023-03-01T20:51:08;99844.88;;;7.02
76901;BMP280;65859;43.020;25.096;2023-03-01T20:53:35;99846.88;;;6.92
76901;BMP280;65859;43.020;25.096;2023-03-01T20:56:07;99840.63;;;6.83
76901;BMP280;65859;43.020;25.096;2023-03-01T20:58:34;99845.06;;;6.87
76901;BMP280;65859;43.020;25.096;2023-03-01T21:01:04;99851.94;;;6.83
76901;BMP280;65859;43.020;25.096;2023-03-01T21:03:31;99852.25;;;6.76
76901;BMP280;65859;43.020;25.096;2023-03-01T21:05:59;99855.63;;;6.87
76901;BMP280;65859;43.020;25.096;2023-03-01T21:08:25;99855.28;;;6.94
76901;BMP280;65859;43.020;25.096;2023-03-01T21:10:53;99854.88;;;6.76
76901;BMP280;65859;43.020;25.096;2023-03-01T21:13:20;99860.44;;;6.75
76901;BMP280;65859;43.020;25.096;2023-03-01T21:15:54;99858.53;;;6.86
76901;BMP280;65859;43.020;25.096;2023-03-01T21:18:21;99856.97;;;6.85
76901;BMP280;65859;43.020;25.096;2023-03-01T21:20:48;99862.50;;;6.83
76901;BMP280;65859;43.020;25.096;2023-03-01T21:23:14;99865.88;;;6.89
76901;BMP280;65859;43.020;25.096;2023-03-01T21:25:44;99868.59;;;6.78
76901;BMP280;65859;43.020;25.096;2023-03-01T21:28:10;99873.34;;;6.76
76901;BMP280;65859;43.020;25.096;2023-03-01T21:30:36;99872.06;;;6.74
76901;BMP280;65859;43.020;25.096;2023-03-01T21:33:04;99882.97;;;6.91
76901;BMP280;65859;43.020;25.096;2023-03-01T21:35:31;99878.63;;;6.76
76901;BMP280;65859;43.020;25.096;2023-03-01T21:37:57;99881.41;;;6.90
76901;BMP280;65859;43.020;25.096;2023-03-01T21:40:23;99874.56;;;6.89
76901;BMP280;65859;43.020;25.096;2023-03-01T21:42:50;99868.72;;;6.97
76901;BMP280;65859;43.020;25.096;2023-03-01T21:45:16;99873.44;;;6.71
76901;BMP280;65859;43.020;25.096;2023-03-01T21:47:42;99865.81;;;6.70
76901;BMP280;65859;43.020;25.096;2023-03-01T21:50:09;99868.50;;;6.89
76901;BMP280;65859;43.020;25.096;2023-03-01T21:52:36;99864.13;;;6.79
76901;BMP280;65859;43.020;25.096;2023-03-01T21:55:02;99859.63;;;6.79
76901;BMP280;65859;43.020;25.096;2023-03-01T21:57:29;99866.72;;;6.84
76901;BMP280;65859;43.020;25.096;2023-03-01T21:59:55;99860.09;;;6.87
76901;BMP280;65859;43.020;25.096;2023-03-01T22:02:22;99866.25;;;6.77
76901;BMP280;65859;43.020;25.096;2023-03-01T22:04:52;99861.84;;;6.67
76901;BMP280;65859;43.020;25.096;2023-03-01T22:07:22;99854.63;;;6.78
76901;BMP280;65859;43.020;25.096;2023-03-01T22:09:49;99857.22;;;7.12
76901;BMP280;65859;43.020;25.096;2023-03-01T22:12:15;99863.78;;;7.15
76901;BMP280;65859;43.020;25.096;2023-03-01T22:14:41;99848.69;;;6.91
76901;BMP280;65859;43.020;25.096;2023-03-01T22:17:09;99851.16;;;7.12
76901;BMP280;65859;43.020;25.096;2023-03-01T22:19:35;99859.91;;;7.07
76901;BMP280;65859;43.020;25.096;2023-03-01T22:22:01;99854.09;;;6.76
76901;BMP280;65859;43.020;25.096;2023-03-01T22:24:28;99856.38;;;6.88
76901;BMP280;65859;43.020;25.096;2023-03-01T22:26:54;99861.31;;;6.99
76901;BMP280;65859;43.020;25.096;2023-03-01T22:29:24;99862.13;;;6.95
76901;BMP280;65859;43.020;25.096;2023-03-01T22:31:51;99854.66;;;7.02
76901;BMP280;65859;43.020;25.096;2023-03-01T22:34:18;99849.88;;;7.28
76901;BMP280;65859;43.020;25.096;2023-03-01T22:36:46;99853.34;;;7.28
76901;BMP280;65859;43.020;25.096;2023-03-01T22:39:15;99856.81;;;7.24
76901;BMP280;65859;43.020;25.096;2023-03-01T22:41:44;99851.44;;;7.10
76901;BMP280;65859;43.020;25.096;2023-03-01T22:44:12;99853.78;;;7.12
76901;BMP280;65859;43.020;25.096;2023-03-01T22:46:39;99866.31;;;7.25
76901;BMP280;65859;43.020;25.096;2023-03-01T22:49:06;99862.03;;;7.05
76901;BMP280;65859;43.020;25.096;2023-03-01T22:51:35;99862.75;;;6.87
76901;BMP280;65859;43.020;25.096;2023-03-01T22:54:02;99869.69;;;6.77
76901;BMP280;65859;43.020;25.096;2023-03-01T22:56:32;99869.69;;;7.07
76901;BMP280;65859;43.020;25.096;2023-03-01T22:59:04;99863.72;;;7.20
76901;BMP280;65859;43.020;25.096;2023-03-01T23:01:34;99864.81;;;6.90
76901;BMP280;65859;43.020;25.096;2023-03-01T23:04:01;99871.69;;;7.15
76901;BMP280;65859;43.020;25.096;2023-03-01T23:06:28;99868.31;;;7.09
76901;BMP280;65859;43.020;25.096;2023-03-01T23:08:58;99867.19;;;7.15
76901;BMP280;65859;43.020;25.096;2023-03-01T23:11:26;99860.41;;;7.09
76901;BMP280;65859;43.020;25.096;2023-03-01T23:13:53;99863.56;;;7.11
76901;BMP280;65859;43.020;25.096;2023-03-01T23:16:21;99857.31;;;6.73
76901;BMP280;65859;43.020;25.096;2023-03-01T23:18:55;99859.88;;;6.83
76901;BMP280;65859;43.020;25.096;2023-03-01T23:21:23;99853.41;;;6.99
76901;BMP280;65859;43.020;25.096;2023-03-01T23:23:50;99852.78;;;6.78
76901;BMP280;65859;43.020;25.096;2023-03-01T23:26:18;99850.28;;;6.92
76901;BMP280;65859;43.020;25.096;2023-03-01T23:28:47;99850.41;;;7.06
76901;BMP280;65859;43.020;25.096;2023-03-01T23:31:16;99846.66;;;7.12
76901;BMP280;65859;43.020;25.096;2023-03-01T23:33:44;99854.88;;;7.05
76901;BMP280;65859;43.020;25.096;2023-03-01T23:38:40;99849.59;;;6.82
76901;BMP280;65859;43.020;25.096;2023-03-01T23:41:12;99848.44;;;6.64
76901;BMP280;65859;43.020;25.096;2023-03-01T23:43:42;99852.19;;;6.87
76901;BMP280;65859;43.020;25.096;2023-03-01T23:46:08;99856.50;;;7.01
76901;BMP280;65859;43.020;25.096;2023-03-01T23:48:40;99859.31;;;6.86
76901;BMP280;65859;43.020;25.096;2023-03-01T23:51:06;99861.34;;;6.94
76901;BMP280;65859;43.020;25.096;2023-03-01T23:53:38;99852.97;;;6.87
76901;BMP280;65859;43.020;25.096;2023-03-01T23:56:06;99854.41;;;6.74
76901;BMP280;65859;43.020;25.096;2023-03-01T23:58:32;99852.63;;;6.70
